sensor_id;sensor_type;location;lat;lon;timestamp;noise_LAeq;noise_LA_min;noise_LA_max;noise_LA01;noise_LA95
72805;Laerm;60920;48.748;19.142;2024-01-15T00:00:12;28.93;27.68;30.05;;
72805;Laerm;60920;48.748;19.142;2024-01-15T00:02:38;28.93;27.79;30.03;;
72805;Laerm;60920;48.748;19.142;2024-01-15T00:05:06;28.94;27.38;29.99;;
72805;Laerm;60920;48.748;19.142;2024-01-15T00:07:31;28.94;27.56;30.00;;
72805;Laerm;60920;48.748;19.142;2024-01-15T00:09:56;28.95;27.57;30.23;;
72805;Laerm;60920;48.748;19.142;2024-01-15T00:12:21;28.94;27.61;30.24;;
72805;Laerm;60920;48.748;19.142;2024-01-15T00:14:47;28.95;27.57;30.06;;
72805;Laerm;60920;48.748;19.142;2024-01-15T00:17:12;28.97;27.77;30.24;;
72805;Laerm;60920;48.748;19.142;2024-01-15T00:19:38;28.97;27.74;30.09;;
72805;Laerm;60920;48.748;19.142;2024-01-15T00:22:03;28.97;27.87;30.23;;
72805;Laerm;60920;48.748;19.142;2024-01-15T00:24:28;28.99;27.47;30.17;;
72805;Laerm;60920;48.748;19.142;2024-01-15T00:26:54;29.00;27.72;30.16;;
72805;Laerm;60920;48.748;19.142;2024-01-15T00:29:19;29.01;27.60;30.34;;
72805;Laerm;60920;48.748;19.142;2024-01-15T00:31:44;29.00;27.67;30.23;;
72805;Laerm;60920;48.748;19.142;2024-01-15T00:34:09;28.97;27.43;30.11;;
72805;Laerm;60920;48.748;19.142;2024-01-15T00:36:35;28.98;27.75;30.20;;
72805;Laerm;60920;48.748;19.142;2024-01-15T00:39:01;29.03;27.74;30.09;;
72805;Laerm;60920;48.748;19.142;2024-01-15T00:41:26;29.09;27.91;30.23;;
72805;Laerm;60920;48.748;19.142;2024-01-15T00:43:53;29.19;27.87;30.81;;
72805;Laerm;60920;48.748;19.142;2024-01-15T00:46:18;29.24;27.79;30.62;;
72805;Laerm;60920;48.748;19.142;2024-01-15T00:48:43;29.23;27.98;30.33;;
72805;Laerm;60920;48.748;19.142;2024-01-15T00:51:19;29.26;27.97;30.70;;
72805;Laerm;60920;48.748;19.142;2024-01-15T00:53:49;29.26;27.87;30.64;;
72805;Laerm;60920;48.748;19.142;2024-01-15T01:15:44;29.27;27.96;30.51;;
72805;Laerm;60920;48.748;19.142;2024-01-15T01:18:09;29.30;28.01;30.63;;
72805;Laerm;60920;48.748;19.142;2024-01-15T01:20:34;29.25;27.81;30.44;;
72805;Laerm;60920;48.748;19.142;2024-01-15T01:23:00;29.25;27.91;30.35;;
72805;Laerm;60920;48.748;19.142;2024-01-15T01:25:25;29.24;27.98;30.35;;
72805;Laerm;60920;48.748;19.142;2024-01-15T01:27:50;29.23;27.86;30.60;;
72805;Laerm;60920;48.748;19.142;2024-01-15T01:30:15;29.28;27.69;30.53;;
72805;Laerm;60920;48.748;19.142;2024-01-15T01:32:41;29.24;27.98;30.46;;
72805;Laerm;60920;48.748;19.142;2024-01-15T01:35:06;29.24;27.94;30.47;;
72805;Laerm;60920;48.748;19.142;2024-01-15T01:37:31;29.26;27.97;30.60;;
72805;Laerm;60920;48.748;19.142;2024-01-15T01:40:00;29.23;27.98;30.50;;
72805;Laerm;60920;48.748;19.142;2024-01-15T01:42:28;29.26;27.94;30.66;;
72805;Laerm;60920;48.748;19.142;2024-01-15T01:44:53;29.34;27.85;30.50;;
72805;Laerm;60920;48.748;19.142;2024-01-15T01:47:40;29.36;28.12;30.75;;
72805;Laerm;60920;48.748;19.142;2024-01-15T02:02:33;29.34;28.07;30.64;;
72805;Laerm;60920;48.748;19.142;2024-01-15T02:04:59;29.34;28.00;30.66;;
72805;Laerm;60920;48.748;19.142;2024-01-15T02:07:24;29.34;28.04;30.55;;
72805;Laerm;60920;48.748;19.142;2024-01-15T02:09:50;29.33;28.04;30.62;;
72805;Laerm;60920;48.748;19.142;2024-01-15T02:12:15;29.33;28.03;30.59;;
72805;Laerm;60920;48.748;19.142;2024-01-15T02:14:41;29.34;28.07;30.56;;
72805;Laerm;60920;48.748;19.142;2024-01-15T02:17:06;29.34;28.00;30.57;;
72805;Laerm;60920;48.748;19.142;2024-01-15T02:19:31;29.34;27.86;30.44;;
72805;Laerm;60920;48.748;19.142;2024-01-15T02:21:57;29.34;28.20;30.57;;
72805;Laerm;60920;48.748;19.142;2024-01-15T02:24:22;29.35;28.02;30.43;;
72805;Laerm;60920;48.748;19.142;2024-01-15T02:26:48;29.36;27.97;30.93;;
72805;Laerm;60920;48.748;19.142;2024-01-15T02:29:13;29.34;28.05;30.52;;
72805;Laerm;60920;48.748;19.142;2024-01-15T02:31:40;29.33;28.05;30.51;;
72805;Laerm;60920;48.748;19.142;2024-01-15T02:34:05;29.35;28.09;30.77;;
72805;Laerm;60920;48.748;19.142;2024-01-15T02:36:30;29.35;27.95;30.48;;
72805;Laerm;60920;48.748;19.142;2024-01-15T02:38:55;29.34;28.08;30.60;;
72805;Laerm;60920;48.748;19.142;2024-01-15T02:41:21;29.34;28.01;30.57;;
72805;Laerm;60920;48.748;19.142;2024-01-15T02:43:46;29.38;28.12;30.58;;
72805;Laerm;60920;48.748;19.142;2024-01-15T02:46:11;29.40;28.18;30.53;;
72805;Laerm;60920;48.748;19.142;2024-01-15T02:48:37;29.40;28.07;30.70;;
72805;Laerm;60920;48.748;19.142;2024-01-15T02:51:04;29.37;28.08;30.66;;
72805;Laerm;60920;48.748;19.142;2024-01-15T02:53:30;29.35;27.99;30.43;;
72805;Laerm;60920;48.748;19.142;2024-01-15T02:55:55;29.35;28.05;30.58;;
72805;Laerm;60920;48.748;19.142;2024-01-15T02:58:21;29.35;28.19;30.47;;
72805;Laerm;60920;48.748;19.142;2024-01-15T03:00:46;29.36;28.20;30.80;;
72805;Laerm;60920;48.748;19.142;2024-01-15T03:03:11;29.36;28.07;30.50;;
72805;Laerm;60920;48.748;19.142;2024-01-15T03:05:37;29.34;28.05;30.57;;
72805;Laerm;60920;48.748;19.142;2024-01-15T03:08:02;29.38;28.02;30.49;;
72805;Laerm;60920;48.748;19.142;2024-01-15T03:10:27;29.38;28.10;30.45;;
72805;Laerm;60920;48.748;19.142;2024-01-15T03:12:53;29.39;28.05;30.49;;
72805;Laerm;60920;48.748;19.142;2024-01-15T03:15:18;29.38;28.18;30.56;;
72805;Laerm;60920;48.748;19.142;2024-01-15T03:17:44;29.40;28.11;30.55;;
72805;Laerm;60920;48.748;19.142;2024-01-15T03:33:26;29.39;28.11;30.81;;
72805;Laerm;60920;48.748;19.142;2024-01-15T03:35:51;29.39;27.95;30.83;;
72805;Laerm;60920;48.748;19.142;2024-01-15T03:38:16;29.37;28.18;30.58;;
72805;Laerm;60920;48.748;19.142;2024-01-15T03:40:42;29.37;28.13;30.64;;
72805;Laerm;60920;48.748;19.142;2024-01-15T03:43:07;29.35;28.10;30.76;;
72805;Laerm;60920;48.748;19.142;2024-01-15T03:45:32;29.33;28.08;30.44;;
72805;Laerm;60920;48.748;19.142;2024-01-15T03:47:57;29.36;28.17;30.53;;
72805;Laerm;60920;48.748;19.142;2024-01-15T03:50:23;29.36;27.94;30.74;;
72805;Laerm;60920;48.748;19.142;2024-01-15T03:52:55;29.36;27.98;30.81;;
72805;Laerm;60920;48.748;19.142;2024-01-15T03:55:21;29.38;28.22;30.78;;
72805;Laerm;60920;48.748;19.142;2024-01-15T03:57:46;29.36;27.97;30.53;;
72805;Laerm;60920;48.748;19.142;2024-01-15T04:00:24;29.40;27.93;30.63;;
72805;Laerm;60920;48.748;19.142;2024-01-15T04:02:49;29.42;28.15;30.66;;
72805;Laerm;60920;48.748;19.142;2024-01-15T04:05:14;29.42;28.01;30.64;;
72805;Laerm;60920;48.748;19.142;2024-01-15T04:07:39;29.41;28.09;30.60;;
72805;Laerm;60920;48.748;19.142;2024-01-15T04:10:05;29.41;28.12;30.73;;
72805;Laerm;60920;48.748;19.142;2024-01-15T04:12:30;29.44;28.27;30.58;;
72805;Laerm;60920;48.748;19.142;2024-01-15T04:14:56;29.46;28.19;30.73;;
72805;Laerm;60920;48.748;19.142;2024-01-15T04:17:21;29.43;28.20;30.66;;
72805;Laerm;60920;48.748;19.142;2024-01-15T04:19:47;29.43;28.21;30.72;;
72805;Laerm;60920;48.748;19.142;2024-01-15T04:22:15;29.41;28.05;30.72;;
72805;Laerm;60920;48.748;19.142;2024-01-15T04:24:40;29.42;28.25;30.73;;
72805;Laerm;60920;48.748;19.142;2024-01-15T04:27:06;29.42;28.14;30.73;;
72805;Laerm;60920;48.748;19.142;2024-01-15T04:29:32;29.35;28.16;30.46;;
72805;Laerm;60920;48.748;19.142;2024-01-15T04:32:04;29.36;28.05;30.52;;
72805;Laerm;60920;48.748;19.142;2024-01-15T04:34:30;29.30;28.01;30.55;;
72805;Laerm;60920;48.748;19.142;2024-01-15T04:36:55;29.39;28.14;30.68;;
72805;Laerm;60920;48.748;19.142;2024-01-15T04:39:20;29.41;28.06;30.80;;
72805;Laerm;60920;48.748;19.142;2024-01-15T04:41:46;29.43;28.23;30.73;;
72805;Laerm;60920;48.748;19.142;2024-01-15T04:44:12;29.33;27.99;30.56;;
72805;Laerm;60920;48.748;19.142;2024-01-15T04:46:37;29.41;28.10;30.66;;
72805;Laerm;60920;48.748;19.142;2024-01-15T04:49:03;29.48;28.07;30.67;;
72805;Laerm;60920;48.748;19.142;2024-01-15T04:51:28;29.47;28.24;30.80;;
72805;Laerm;60920;48.748;19.142;2024-01-15T04:53:53;29.45;28.25;30.78;;
72805;Laerm;60920;48.748;19.142;2024-01-15T04:56:18;29.41;28.04;30.64;;
72805;Laerm;60920;48.748;19.142;2024-01-15T04:58:46;29.38;28.13;30.65;;
72805;Laerm;60920;48.748;19.142;2024-01-15T05:01:12;29.40;28.15;30.70;;
72805;Laerm;60920;48.748;19.142;2024-01-15T05:03:40;29.40;28.13;30.86;;
72805;Laerm;60920;48.748;19.142;2024-01-15T05:18:21;29.53;28.22;30.69;;
72805;Laerm;60920;48.748;19.142;2024-01-15T05:20:46;29.53;28.36;30.82;;
72805;Laerm;60920;48.748;19.142;2024-01-15T05:23:11;29.55;28.28;30.72;;
72805;Laerm;60920;48.748;19.142;2024-01-15T05:25:37;29.52;28.26;30.73;;
72805;Laerm;60920;48.748;19.142;2024-01-15T05:28:02;29.50;28.28;30.73;;
72805;Laerm;60920;48.748;19.142;2024-01-15T05:30:27;29.45;28.11;30.64;;
72805;Laerm;60920;48.748;19.142;2024-01-15T05:32:53;29.48;28.08;30.65;;
72805;Laerm;60920;48.748;19.142;2024-01-15T05:35:18;29.50;28.15;30.59;;
72805;Laerm;60920;48.748;19.142;2024-01-15T05:37:46;29.52;28.22;30.74;;
72805;Laerm;60920;48.748;19.142;2024-01-15T05:40:31;29.64;28.14;34.11;;
72805;Laerm;60920;48.748;19.142;2024-01-15T05:42:58;29.50;28.25;31.01;;
72805;Laerm;60920;48.748;19.142;2024-01-15T06:07:28;29.51;28.18;30.88;;
72805;Laerm;60920;48.748;19.142;2024-01-15T06:09:54;29.51;28.21;30.72;;
72805;Laerm;60920;48.748;19.142;2024-01-15T06:12:20;29.50;28.25;30.89;;
72805;Laerm;60920;48.748;19.142;2024-01-15T06:14:46;29.54;28.10;30.73;;
72805;Laerm;60920;48.748;19.142;2024-01-15T06:17:13;29.54;28.27;30.63;;
72805;Laerm;60920;48.748;19.142;2024-01-15T06:19:39;29.53;28.31;30.92;;
72805;Laerm;60920;48.748;19.142;2024-01-15T06:22:06;29.54;28.30;31.05;;
72805;Laerm;60920;48.748;19.142;2024-01-15T06:24:32;29.57;28.10;30.74;;
72805;Laerm;60920;48.748;19.142;2024-01-15T06:27:04;29.58;28.21;30.85;;
72805;Laerm;60920;48.748;19.142;2024-01-15T06:42:08;29.58;28.25;30.88;;
72805;Laerm;60920;48.748;19.142;2024-01-15T06:44:43;29.58;28.20;30.76;;
72805;Laerm;60920;48.748;19.142;2024-01-15T06:59:34;29.52;28.26;30.65;;
72805;Laerm;60920;48.748;19.142;2024-01-15T07:02:00;29.52;28.23;30.76;;
72805;Laerm;60920;48.748;19.142;2024-01-15T07:04:26;29.41;28.07;30.60;;
72805;Laerm;60920;48.748;19.142;2024-01-15T07:06:51;29.46;28.21;30.81;;
72805;Laerm;60920;48.748;19.142;2024-01-15T07:09:17;29.43;28.08;30.63;;
72805;Laerm;60920;48.748;19.142;2024-01-15T07:11:45;29.34;28.08;30.93;;
72805;Laerm;60920;48.748;19.142;2024-01-15T07:14:11;29.34;27.93;30.56;;
72805;Laerm;60920;48.748;19.142;2024-01-15T07:16:39;29.35;28.08;30.53;;
72805;Laerm;60920;48.748;19.142;2024-01-15T07:19:04;29.36;28.06;30.60;;
72805;Laerm;60920;48.748;19.142;2024-01-15T07:21:34;29.16;27.74;30.44;;
72805;Laerm;60920;48.748;19.142;2024-01-15T07:24:00;29.14;27.58;30.41;;
72805;Laerm;60920;48.748;19.142;2024-01-15T07:26:25;29.14;28.00;30.31;;
72805;Laerm;60920;48.748;19.142;2024-01-15T07:28:51;29.10;27.75;30.31;;
72805;Laerm;60920;48.748;19.142;2024-01-15T07:31:24;29.07;27.74;30.38;;
72805;Laerm;60920;48.748;19.142;2024-01-15T07:33:49;29.03;27.84;30.31;;
72805;Laerm;60920;48.748;19.142;2024-01-15T07:45:04;29.01;27.79;30.23;;
72805;Laerm;60920;48.748;19.142;2024-01-15T07:47:30;28.99;27.73;30.26;;
72805;Laerm;60920;48.748;19.142;2024-01-15T07:49:55;29.03;27.50;30.22;;
72805;Laerm;60920;48.748;19.142;2024-01-15T07:52:21;29.01;27.71;30.14;;
72805;Laerm;60920;48.748;19.142;2024-01-15T07:54:53;29.21;27.94;30.46;;
72805;Laerm;60920;48.748;19.142;2024-01-15T07:57:22;29.23;27.79;30.35;;
72805;Laerm;60920;48.748;19.142;2024-01-15T07:59:48;29.28;28.11;30.92;;
72805;Laerm;60920;48.748;19.142;2024-01-15T08:02:13;29.49;28.00;30.77;;
72805;Laerm;60920;48.748;19.142;2024-01-15T08:04:38;29.46;28.31;30.67;;
72805;Laerm;60920;48.748;19.142;2024-01-15T08:07:05;29.36;28.06;30.60;;
72805;Laerm;60920;48.748;19.142;2024-01-15T08:09:32;29.30;27.76;30.59;;
72805;Laerm;60920;48.748;19.142;2024-01-15T08:12:05;29.63;28.37;30.72;;
72805;Laerm;60920;48.748;19.142;2024-01-15T08:15:11;29.37;28.01;30.95;;
72805;Laerm;60920;48.748;19.142;2024-01-15T08:30:04;29.10;27.94;30.19;;
72805;Laerm;60920;48.748;19.142;2024-01-15T08:32:30;29.06;27.83;30.19;;
72805;Laerm;60920;48.748;19.142;2024-01-15T08:34:55;29.07;27.71;30.16;;
72805;Laerm;60920;48.748;19.142;2024-01-15T08:37:20;29.02;27.55;30.17;;
72805;Laerm;60920;48.748;19.142;2024-01-15T08:39:46;28.98;27.63;30.14;;
72805;Laerm;60920;48.748;19.142;2024-01-15T08:42:11;29.01;27.72;30.12;;
72805;Laerm;60920;48.748;19.142;2024-01-15T08:44:36;29.03;27.67;30.16;;
72805;Laerm;60920;48.748;19.142;2024-01-15T08:47:04;29.02;27.56;30.26;;
72805;Laerm;60920;48.748;19.142;2024-01-15T08:49:29;29.02;27.72;30.30;;
72805;Laerm;60920;48.748;19.142;2024-01-15T08:51:55;29.05;27.82;30.42;;
72805;Laerm;60920;48.748;19.142;2024-01-15T08:54:20;29.05;27.74;30.27;;
72805;Laerm;60920;48.748;19.142;2024-01-15T08:56:45;29.05;27.79;30.48;;
72805;Laerm;60920;48.748;19.142;2024-01-15T08:59:11;29.06;27.66;30.15;;
72805;Laerm;60920;48.748;19.142;2024-01-15T09:01:37;29.08;27.63;30.26;;
72805;Laerm;60920;48.748;19.142;2024-01-15T09:04:03;29.00;27.72;30.15;;
72805;Laerm;60920;48.748;19.142;2024-01-15T09:06:28;29.03;27.79;30.20;;
72805;Laerm;60920;48.748;19.142;2024-01-15T09:08:53;29.02;27.75;30.22;;
72805;Laerm;60920;48.748;19.142;2024-01-15T09:11:19;29.10;27.85;30.22;;
72805;Laerm;60920;48.748;19.142;2024-01-15T09:13:44;29.19;28.03;30.50;;
72805;Laerm;60920;48.748;19.142;2024-01-15T09:16:09;29.31;27.98;30.86;;
72805;Laerm;60920;48.748;19.142;2024-01-15T09:18:35;29.42;28.25;30.58;;
72805;Laerm;60920;48.748;19.142;2024-01-15T09:21:00;29.34;27.97;30.62;;
72805;Laerm;60920;48.748;19.142;2024-01-15T09:23:25;29.23;27.79;30.37;;
72805;Laerm;60920;48.748;19.142;2024-01-15T09:25:50;29.22;27.95;30.36;;
72805;Laerm;60920;48.748;19.142;2024-01-15T09:28:17;29.19;27.84;30.86;;
72805;Laerm;60920;48.748;19.142;2024-01-15T09:30:43;29.14;27.62;30.70;;
72805;Laerm;60920;48.748;19.142;2024-01-15T09:33:09;29.21;27.95;30.56;;
72805;Laerm;60920;48.748;19.142;2024-01-15T09:35:35;29.26;28.11;30.57;;
72805;Laerm;60920;48.748;19.142;2024-01-15T09:38:00;29.24;27.97;30.48;;
72805;Laerm;60920;48.748;19.142;2024-01-15T09:40:27;29.28;28.06;30.52;;
72805;Laerm;60920;48.748;19.142;2024-01-15T09:42:55;29.20;27.45;30.33;;
72805;Laerm;60920;48.748;19.142;2024-01-15T09:45:21;29.39;28.00;31.22;;
72805;Laerm;60920;48.748;19.142;2024-01-15T09:47:46;29.48;28.32;31.11;;
72805;Laerm;60920;48.748;19.142;2024-01-15T09:50:12;29.57;28.37;30.76;;
72805;Laerm;60920;48.748;19.142;2024-01-15T09:52:38;29.62;28.45;31.10;;
72805;Laerm;60920;48.748;19.142;2024-01-15T09:55:04;29.65;28.50;30.68;;
72805;Laerm;60920;48.748;19.142;2024-01-15T09:57:30;29.68;28.39;30.91;;
72805;Laerm;60920;48.748;19.142;2024-01-15T09:59:56;29.73;28.61;30.98;;
72805;Laerm;60920;48.748;19.142;2024-01-15T10:02:24;29.82;28.51;31.06;;
72805;Laerm;60920;48.748;19.142;2024-01-15T10:04:49;29.85;28.65;30.94;;
72805;Laerm;60920;48.748;19.142;2024-01-15T10:07:15;30.03;28.84;31.37;;
72805;Laerm;60920;48.748;19.142;2024-01-15T10:09:42;29.98;28.84;31.32;;
72805;Laerm;60920;48.748;19.142;2024-01-15T10:12:09;29.96;28.79;31.38;;
72805;Laerm;60920;48.748;19.142;2024-01-15T10:14:35;29.86;28.70;30.91;;
72805;Laerm;60920;48.748;19.142;2024-01-15T10:17:00;29.73;28.53;31.15;;
72805;Laerm;60920;48.748;19.142;2024-01-15T10:19:25;29.61;28.51;30.99;;
72805;Laerm;60920;48.748;19.142;2024-01-15T10:21:51;29.69;28.28;34.66;;
72805;Laerm;60920;48.748;19.142;2024-01-15T10:24:16;29.61;28.08;30.74;;
72805;Laerm;60920;48.748;19.142;2024-01-15T10:26:42;29.54;28.18;30.67;;
72805;Laerm;60920;48.748;19.142;2024-01-15T10:29:07;29.45;28.10;30.84;;
72805;Laerm;60920;48.748;19.142;2024-01-15T10:31:32;29.53;28.25;30.74;;
72805;Laerm;60920;48.748;19.142;2024-01-15T10:34:10;29.75;28.55;30.93;;
72805;Laerm;60920;48.748;19.142;2024-01-15T10:36:39;29.88;28.43;31.04;;
72805;Laerm;60920;48.748;19.142;2024-01-15T10:39:04;30.01;28.78;31.27;;
72805;Laerm;60920;48.748;19.142;2024-01-15T10:41:31;30.13;28.82;31.28;;
72805;Laerm;60920;48.748;19.142;2024-01-15T10:43:56;30.20;28.98;31.60;;
72805;Laerm;60920;48.748;19.142;2024-01-15T10:46:22;30.18;28.92;31.79;;
72805;Laerm;60920;48.748;19.142;2024-01-15T10:48:47;30.19;28.73;31.50;;
72805;Laerm;60920;48.748;19.142;2024-01-15T10:51:13;30.12;28.79;31.38;;
72805;Laerm;60920;48.748;19.142;2024-01-15T10:53:40;30.23;28.98;31.81;;
72805;Laerm;60920;48.748;19.142;2024-01-15T10:56:06;30.25;28.81;31.39;;
72805;Laerm;60920;48.748;19.142;2024-01-15T10:58:32;30.55;29.19;31.71;;
72805;Laerm;60920;48.748;19.142;2024-01-15T11:00:58;30.43;29.20;31.57;;
72805;Laerm;60920;48.748;19.142;2024-01-15T11:03:24;30.72;29.40;32.08;;
72805;Laerm;60920;48.748;19.142;2024-01-15T11:05:49;30.78;29.51;32.01;;
72805;Laerm;60920;48.748;19.142;2024-01-15T11:08:17;30.86;29.52;32.04;;
72805;Laerm;60920;48.748;19.142;2024-01-15T11:10:43;30.89;29.52;32.11;;
72805;Laerm;60920;48.748;19.142;2024-01-15T11:18:23;30.94;29.74;32.20;;
72805;Laerm;60920;48.748;19.142;2024-01-15T11:23:44;31.00;29.63;32.21;;
72805;Laerm;60920;48.748;19.142;2024-01-15T11:28:55;31.06;29.82;32.38;;
72805;Laerm;60920;48.748;19.142;2024-01-15T11:31:28;31.12;29.89;32.67;;
72805;Laerm;60920;48.748;19.142;2024-01-15T11:33:53;31.13;29.87;32.27;;
72805;Laerm;60920;48.748;19.142;2024-01-15T11:36:20;31.12;29.77;32.44;;
72805;Laerm;60920;48.748;19.142;2024-01-15T11:38:45;31.11;29.78;32.36;;
72805;Laerm;60920;48.748;19.142;2024-01-15T11:41:14;31.15;29.87;32.37;;
72805;Laerm;60920;48.748;19.142;2024-01-15T11:43:42;31.10;29.91;33.26;;
72805;Laerm;60920;48.748;19.142;2024-01-15T11:46:10;31.12;29.65;32.33;;
72805;Laerm;60920;48.748;19.142;2024-01-15T11:48:42;31.07;29.88;32.27;;
72805;Laerm;60920;48.748;19.142;2024-01-15T11:51:10;30.99;29.60;32.39;;
72805;Laerm;60920;48.748;19.142;2024-01-15T11:56:05;30.82;29.54;32.00;;
72805;Laerm;60920;48.748;19.142;2024-01-15T11:58:35;30.71;29.33;32.33;;
72805;Laerm;60920;48.748;19.142;2024-01-15T12:01:02;30.70;29.34;32.30;;
72805;Laerm;60920;48.748;19.142;2024-01-15T12:03:27;30.61;29.36;32.01;;
72805;Laerm;60920;48.748;19.142;2024-01-15T12:05:53;30.95;29.39;32.33;;
72805;Laerm;60920;48.748;19.142;2024-01-15T12:08:22;30.58;29.12;32.57;;
72805;Laerm;60920;48.748;19.142;2024-01-15T12:10:47;30.46;29.09;36.03;;
72805;Laerm;60920;48.748;19.142;2024-01-15T12:13:13;30.48;28.98;34.25;;
72805;Laerm;60920;48.748;19.142;2024-01-15T12:15:39;30.24;28.86;31.43;;
72805;Laerm;60920;48.748;19.142;2024-01-15T12:18:08;30.26;29.03;31.44;;
72805;Laerm;60920;48.748;19.142;2024-01-15T12:20:34;30.41;28.59;31.87;;
72805;Laerm;60920;48.748;19.142;2024-01-15T12:22:59;30.35;29.04;31.68;;
72805;Laerm;60920;48.748;19.142;2024-01-15T12:25:25;30.42;28.75;33.83;;
72805;Laerm;60920;48.748;19.142;2024-01-15T12:27:52;30.72;28.88;44.25;;
72805;Laerm;60920;48.748;19.142;2024-01-15T12:30:17;30.44;29.14;34.70;;
72805;Laerm;60920;48.748;19.142;2024-01-15T12:32:43;30.26;28.82;31.95;;
72805;Laerm;60920;48.748;19.142;2024-01-15T12:35:10;30.37;28.88;31.65;;
72805;Laerm;60920;48.748;19.142;2024-01-15T12:37:36;30.33;28.94;32.15;;
72805;Laerm;60920;48.748;19.142;2024-01-15T12:40:02;30.26;28.75;31.83;;
72805;Laerm;60920;48.748;19.142;2024-01-15T12:42:28;30.20;28.64;31.77;;
72805;Laerm;60920;48.748;19.142;2024-01-15T12:44:55;30.20;28.83;33.00;;
72805;Laerm;60920;48.748;19.142;2024-01-15T12:47:20;30.10;28.82;31.78;;
72805;Laerm;60920;48.748;19.142;2024-01-15T12:49:50;30.08;28.52;31.58;;
72805;Laerm;60920;48.748;19.142;2024-01-15T12:52:18;29.81;28.12;31.06;;
72805;Laerm;60920;48.748;19.142;2024-01-15T12:54:44;29.66;28.33;30.91;;
72805;Laerm;60920;48.748;19.142;2024-01-15T12:57:09;29.62;28.05;30.87;;
72805;Laerm;60920;48.748;19.142;2024-01-15T12:59:34;29.62;28.25;30.85;;
72805;Laerm;60920;48.748;19.142;2024-01-15T13:02:00;29.84;28.12;31.12;;
72805;Laerm;60920;48.748;19.142;2024-01-15T13:04:25;29.60;28.18;30.74;;
72805;Laerm;60920;48.748;19.142;2024-01-15T13:06:51;29.69;28.39;31.09;;
72805;Laerm;60920;48.748;19.142;2024-01-15T13:09:16;29.62;28.40;30.95;;
72805;Laerm;60920;48.748;19.142;2024-01-15T13:11:42;29.70;28.21;32.23;;
72805;Laerm;60920;48.748;19.142;2024-01-15T13:14:07;29.63;28.39;30.88;;
72805;Laerm;60920;48.748;19.142;2024-01-15T13:16:33;29.70;28.29;31.09;;
72805;Laerm;60920;48.748;19.142;2024-01-15T13:18:58;29.68;28.21;31.25;;
72805;Laerm;60920;48.748;19.142;2024-01-15T13:21:24;29.94;28.11;31.75;;
72805;Laerm;60920;48.748;19.142;2024-01-15T13:23:49;29.71;28.49;31.23;;
72805;Laerm;60920;48.748;19.142;2024-01-15T13:26:14;29.56;28.39;31.02;;
72805;Laerm;60920;48.748;19.142;2024-01-15T13:28:40;29.67;28.10;31.02;;
72805;Laerm;60920;48.748;19.142;2024-01-15T13:31:05;29.55;28.22;31.20;;
72805;Laerm;60920;48.748;19.142;2024-01-15T13:33:31;29.40;28.02;30.54;;
72805;Laerm;60920;48.748;19.142;2024-01-15T13:35:56;29.42;28.11;31.06;;
72805;Laerm;60920;48.748;19.142;2024-01-15T13:38:21;29.44;28.21;30.61;;
72805;Laerm;60920;48.748;19.142;2024-01-15T13:40:46;29.44;27.92;31.04;;
72805;Laerm;60920;48.748;19.142;2024-01-15T13:43:12;29.50;28.17;30.71;;
72805;Laerm;60920;48.748;19.142;2024-01-15T13:45:39;29.51;28.33;30.77;;
72805;Laerm;60920;48.748;19.142;2024-01-15T13:48:05;29.47;27.88;30.75;;
72805;Laerm;60920;48.748;19.142;2024-01-15T13:50:34;29.32;27.91;30.87;;
72805;Laerm;60920;48.748;19.142;2024-01-15T13:53:00;29.25;27.86;36.10;;
72805;Laerm;60920;48.748;19.142;2024-01-15T13:55:25;29.05;27.32;30.93;;
72805;Laerm;60920;48.748;19.142;2024-01-15T13:57:50;29.11;27.83;31.00;;
72805;Laerm;60920;48.748;19.142;2024-01-15T14:00:16;29.10;27.75;30.72;;
72805;Laerm;60920;48.748;19.142;2024-01-15T14:02:45;29.10;27.70;30.44;;
72805;Laerm;60920;48.748;19.142;2024-01-15T14:05:10;29.25;27.94;30.86;;
72805;Laerm;60920;48.748;19.142;2024-01-15T14:07:38;29.27;28.02;30.68;;
72805;Laerm;60920;48.748;19.142;2024-01-15T14:10:04;29.24;27.89;30.40;;
72805;Laerm;60920;48.748;19.142;2024-01-15T14:12:29;29.38;27.78;31.33;;
72805;Laerm;60920;48.748;19.142;2024-01-15T14:14:55;29.31;27.75;30.82;;
72805;Laerm;60920;48.748;19.142;2024-01-15T14:17:20;29.30;27.81;30.85;;
72805;Laerm;60920;48.748;19.142;2024-01-15T14:19:45;29.31;27.78;30.70;;
72805;Laerm;60920;48.748;19.142;2024-01-15T14:22:11;29.39;28.00;30.91;;
72805;Laerm;60920;48.748;19.142;2024-01-15T14:24:36;29.37;27.88;30.88;;
72805;Laerm;60920;48.748;19.142;2024-01-15T14:27:01;29.43;27.92;30.65;;
72805;Laerm;60920;48.748;19.142;2024-01-15T14:29:26;29.44;27.98;30.77;;
72805;Laerm;60920;48.748;19.142;2024-01-15T14:31:52;29.64;27.93;31.63;;
72805;Laerm;60920;48.748;19.142;2024-01-15T14:34:17;29.51;28.17;30.77;;
72805;Laerm;60920;48.748;19.142;2024-01-15T14:36:43;29.57;28.25;31.04;;
72805;Laerm;60920;48.748;19.142;2024-01-15T14:39:08;29.70;28.30;31.28;;
72805;Laerm;60920;48.748;19.142;2024-01-15T14:41:34;29.84;28.50;34.81;;
72805;Laerm;60920;48.748;19.142;2024-01-15T14:44:00;29.91;28.62;42.20;;
72805;Laerm;60920;48.748;19.142;2024-01-15T14:46:25;29.89;28.45;33.97;;
72805;Laerm;60920;48.748;19.142;2024-01-15T14:48:52;29.96;28.49;32.53;;
72805;Laerm;60920;48.748;19.142;2024-01-15T14:51:17;29.96;28.55;31.26;;
72805;Laerm;60920;48.748;19.142;2024-01-15T14:53:43;30.02;28.63;31.42;;
72805;Laerm;60920;48.748;19.142;2024-01-15T14:56:10;29.98;28.49;31.27;;
72805;Laerm;60920;48.748;19.142;2024-01-15T14:58:36;30.08;28.69;32.38;;
72805;Laerm;60920;48.748;19.142;2024-01-15T15:01:01;30.07;28.69;31.50;;
72805;Laerm;60920;48.748;19.142;2024-01-15T15:03:26;30.19;28.82;33.13;;
72805;Laerm;60920;48.748;19.142;2024-01-15T15:05:52;30.18;28.88;31.84;;
72805;Laerm;60920;48.748;19.142;2024-01-15T15:08:17;30.16;28.60;31.48;;
72805;Laerm;60920;48.748;19.142;2024-01-15T15:10:42;30.30;28.72;32.83;;
72805;Laerm;60920;48.748;19.142;2024-01-15T15:13:07;30.32;28.97;33.13;;
72805;Laerm;60920;48.748;19.142;2024-01-15T15:15:33;30.33;29.09;31.74;;
72805;Laerm;60920;48.748;19.142;2024-01-15T15:17:59;30.35;29.18;31.61;;
72805;Laerm;60920;48.748;19.142;2024-01-15T15:20:24;30.33;28.95;31.65;;
72805;Laerm;60920;48.748;19.142;2024-01-15T15:22:50;30.33;28.95;31.74;;
72805;Laerm;60920;48.748;19.142;2024-01-15T15:25:20;30.36;29.00;31.54;;
72805;Laerm;60920;48.748;19.142;2024-01-15T15:27:46;30.30;29.01;31.52;;
72805;Laerm;60920;48.748;19.142;2024-01-15T15:30:12;30.32;29.06;31.88;;
72805;Laerm;60920;48.748;19.142;2024-01-15T15:32:37;30.43;28.85;41.04;;
72805;Laerm;60920;48.748;19.142;2024-01-15T15:35:03;30.32;28.98;36.00;;
72805;Laerm;60920;48.748;19.142;2024-01-15T15:37:28;30.33;28.91;31.66;;
72805;Laerm;60920;48.748;19.142;2024-01-15T15:39:55;30.35;29.04;31.74;;
72805;Laerm;60920;48.748;19.142;2024-01-15T15:42:20;30.24;28.92;31.55;;
72805;Laerm;60920;48.748;19.142;2024-01-15T15:44:46;30.24;28.82;31.36;;